Time;durP1;ratioP1;P1;durP2;ratioP2;P2;SDS_P1;SDS_P2;PMS_P1;PMS_P2;Temp;Humidity;BMP_temperature;BMP_pressure;BME280_temperature;BME280_humidity;BME280_pressure;Samples;Min_cycle;Max_cycle;Signal;HPM_P1;HPM_P2
2021/12/14 00:01:30;;;;;;;17.75;9.50;;;1.00;99.90;;;;;;4994683;28;20149;-81
2021/12/14 00:04:03;;;;;;;15.95;9.18;;;2.10;99.90;;;;;;4991793;28;20046;-82
2021/12/14 00:06:33;;;;;;;13.07;7.80;;;1.10;99.90;;;;;;5000881;28;20530;-79
2021/12/14 00:09:02;;;;;;;15.93;8.40;;;1.70;99.90;;;;;;5003645;28;20048;-80
2021/12/14 00:11:50;;;;;;;15.85;7.90;;;1.50;99.90;;;;;;5010422;28;20092;-80
2021/12/14 00:15:02;;;;;;;13.70;7.88;;;2.20;99.90;;;;;;4997004;28;20585;-81
2021/12/14 00:17:21;;;;;;;14.40;8.60;;;1.50;99.90;;;;;;4994958;28;20051;-80
2021/12/14 00:19:53;;;;;;;13.90;6.95;;;2.20;99.90;;;;;;5007019;28;20050;-80
2021/12/14 00:22:33;;;;;;;10.98;6.45;;;1.00;99.90;;;;;;5002826;28;20054;-80
2021/12/14 00:25:57;;;;;;;14.55;7.28;;;1.20;99.90;;;;;;5012958;28;20097;-79
2021/12/14 00:28:29;;;;;;;11.30;7.07;;;1.80;99.90;;;;;;5004990;28;20061;-78
2021/12/14 00:30:59;;;;;;;13.40;7.25;;;2.00;99.90;;;;;;5002228;28;20069;-79
2021/12/14 00:33:34;;;;;;;11.02;7.22;;;2.90;99.90;;;;;;4995787;28;20065;-79
2021/12/14 00:36:06;;;;;;;17.10;7.93;;;1.70;99.90;;;;;;4994783;28;20050;-79
2021/12/14 00:38:36;;;;;;;10.20;6.45;;;1.90;99.90;;;;;;5026524;28;20053;-80
2021/12/14 00:41:08;;;;;;;11.35;6.30;;;2.40;99.90;;;;;;4995842;28;20387;-79
2021/12/14 00:43:36;;;;;;;10.50;6.97;;;1.50;99.90;;;;;;4999173;28;20041;-79
2021/12/14 00:46:05;;;;;;;12.98;7.65;;;1.30;99.90;;;;;;5005213;28;20383;-81
2021/12/14 00:48:32;;;;;;;13.98;7.68;;;1.00;99.90;;;;;;5013108;28;20089;-81
2021/12/14 00:51:03;;;;;;;14.55;7.80;;;0.90;99.90;;;;;;5029082;28;20048;-81
2021/12/14 00:53:31;;;;;;;15.00;7.38;;;1.50;99.90;;;;;;5008019;28;20537;-80
2021/12/14 00:56:07;;;;;;;17.35;8.02;;;1.60;99.90;;;;;;5004484;28;20537;-80
2021/12/14 00:58:36;;;;;;;16.08;7.90;;;2.40;99.90;;;;;;4996618;28;20419;-80
2021/12/14 01:01:09;;;;;;;12.05;7.68;;;1.90;99.90;;;;;;5032295;28;20045;-80
2021/12/14 01:03:40;;;;;;;12.27;6.95;;;1.50;99.90;;;;;;5012522;28;20050;-81
2021/12/14 01:06:11;;;;;;;13.10;7.28;;;1.90;99.90;;;;;;4991826;28;20049;-80
2021/12/14 01:08:42;;;;;;;12.93;7.40;;;1.40;99.90;;;;;;4987423;28;20047;-81
2021/12/14 01:11:19;;;;;;;9.85;6.55;;;1.70;99.90;;;;;;5035112;28;20057;-80
2021/12/14 01:14:01;;;;;;;11.35;6.35;;;1.60;99.90;;;;;;5009186;28;20065;-79
2021/12/14 01:16:48;;;;;;;10.55;6.10;;;1.90;99.90;;;;;;5011981;28;20403;-78
2021/12/14 01:19:24;;;;;;;11.80;6.38;;;2.10;99.90;;;;;;5020313;28;20050;-78
2021/12/14 01:25:04;;;;;;;11.18;6.70;;;1.70;99.90;;;;;;5010592;28;20045;-79
2021/12/14 01:27:41;;;;;;;21.90;7.53;;;1.50;99.90;;;;;;5044107;28;20068;-80
2021/12/14 01:30:21;;;;;;;18.10;8.82;;;1.80;99.90;;;;;;4992256;28;20050;-79
2021/12/14 01:32:50;;;;;;;14.02;8.73;;;2.80;99.90;;;;;;5020401;28;20042;-78
2021/12/14 01:35:26;;;;;;;15.70;8.15;;;2.30;99.90;;;;;;5024061;28;20054;-79
2021/12/14 01:38:04;;;;;;;18.48;8.10;;;1.70;99.90;;;;;;5011922;28;20506;-79
2021/12/14 01:40:53;;;;;;;14.15;7.75;;;2.00;99.90;;;;;;4999763;28;20046;-80
2021/12/14 01:43:35;;;;;;;12.60;7.15;;;1.50;99.90;;;;;;5033982;28;20062;-79
2021/12/14 01:46:16;;;;;;;15.13;8.45;;;2.10;99.90;;;;;;5026563;28;20053;-79
2021/12/14 01:48:44;;;;;;;;;;;1.20;99.90;;;;;;5010042;28;20054;-79
2021/12/14 01:51:32;;;;;;;13.93;7.82;;;1.40;99.90;;;;;;5006976;28;19932;-79
2021/12/14 01:54:07;;;;;;;15.60;8.23;;;3.00;99.90;;;;;;4998297;28;20522;-79
2021/12/14 01:56:35;;;;;;;16.67;7.40;;;1.40;99.90;;;;;;4993106;28;20058;-79
2021/12/14 01:59:14;;;;;;;10.65;7.47;;;1.20;99.90;;;;;;5010942;28;20042;-81
2021/12/14 02:01:53;;;;;;;14.05;7.35;;;2.30;99.90;;;;;;5010700;28;20069;-80
2021/12/14 02:04:25;;;;;;;13.85;8.27;;;1.40;99.90;;;;;;5006927;28;20085;-80
2021/12/14 02:06:57;;;;;;;13.30;7.78;;;2.00;99.90;;;;;;5007833;28;20054;-79
2021/12/14 02:09:28;;;;;;;15.02;8.43;;;2.70;99.90;;;;;;5027741;28;20054;-79
2021/12/14 02:12:02;;;;;;;17.08;8.68;;;1.20;99.90;;;;;;5043937;28;20060;-79
2021/12/14 02:14:35;;;;;;;18.10;8.70;;;1.80;99.90;;;;;;5029707;28;20507;-80
2021/12/14 02:17:06;;;;;;;22.77;8.65;;;1.20;99.90;;;;;;5022470;28;20058;-80
2021/12/14 02:19:36;;;;;;;11.77;7.32;;;1.20;99.90;;;;;;4994366;28;20049;-79
2021/12/14 02:22:09;;;;;;;12.63;7.45;;;1.60;99.90;;;;;;5008277;28;20081;-79
2021/12/14 02:24:40;;;;;;;11.63;6.15;;;1.40;99.90;;;;;;4986059;28;20060;-78
2021/12/14 02:27:08;;;;;;;8.55;6.03;;;1.40;99.90;;;;;;5010220;28;20050;-79
2021/12/14 02:29:39;;;;;;;10.10;6.70;;;0.80;99.90;;;;;;4997282;28;20046;-79
2021/12/14 02:32:13;;;;;;;11.73;7.40;;;1.30;99.90;;;;;;5010979;28;20045;-79
2021/12/14 02:34:43;;;;;;;11.77;8.00;;;0.90;99.90;;;;;;4989312;28;20674;-80
2021/12/14 02:37:14;;;;;;;13.98;7.97;;;2.30;99.90;;;;;;4990005;28;20053;-79
2021/12/14 02:40:01;;;;;;;14.45;9.32;;;1.20;99.90;;;;;;4998869;28;20038;-79
2021/12/14 02:42:32;;;;;;;16.15;8.35;;;2.00;99.90;;;;;;5016237;28;20073;-78
2021/12/14 02:45:01;;;;;;;16.60;8.48;;;2.00;99.90;;;;;;5005753;28;20466;-79
2021/12/14 02:47:29;;;;;;;14.25;8.07;;;0.70;99.90;;;;;;5023327;28;20050;-80
2021/12/14 02:49:57;;;;;;;14.93;8.95;;;2.40;99.90;;;;;;4999891;28;20039;-79
2021/12/14 02:52:33;;;;;;;15.55;8.52;;;2.30;99.90;;;;;;5002545;28;20050;-79
2021/12/14 02:55:10;;;;;;;14.93;9.27;;;2.20;99.90;;;;;;5025080;28;20046;-79
2021/12/14 02:57:45;;;;;;;13.40;7.45;;;1.70;99.90;;;;;;5023257;28;20041;-80
2021/12/14 03:00:20;;;;;;;11.85;7.63;;;1.10;99.90;;;;;;5009320;28;20112;-79
2021/12/14 03:02:48;;;;;;;11.98;7.60;;;1.60;99.90;;;;;;4990637;28;20050;-78
2021/12/14 03:05:20;;;;;;;13.05;7.82;;;2.60;99.90;;;;;;5001224;28;20069;-78
2021/12/14 03:07:55;;;;;;;15.13;8.27;;;2.50;99.90;;;;;;5029477;28;20054;-79
2021/12/14 03:10:36;;;;;;;16.42;7.93;;;1.50;99.90;;;;;;4995824;28;20069;-79
2021/12/14 03:13:10;;;;;;;13.38;7.93;;;2.70;99.90;;;;;;5009904;28;20085;-79
2021/12/14 03:15:47;;;;;;;13.43;8.00;;;2.30;99.90;;;;;;4995329;28;20062;-78
2021/12/14 03:18:18;;;;;;;14.98;7.90;;;2.40;99.90;;;;;;5001197;28;20054;-79
2021/12/14 03:20:50;;;;;;;15.27;8.68;;;2.60;99.90;;;;;;5009289;28;20053;-79
2021/12/14 03:23:24;;;;;;;13.20;7.00;;;1.40;99.90;;;;;;4996974;28;20069;-79
2021/12/14 03:25:55;;;;;;;12.32;8.18;;;2.00;99.90;;;;;;4992705;28;20050;-79
2021/12/14 03:28:26;;;;;;;12.80;8.40;;;1.60;99.90;;;;;;5005671;28;20537;-78
2021/12/14 03:31:05;;;;;;;14.85;9.10;;;1.10;99.90;;;;;;4991461;28;20058;-78
2021/12/14 03:33:44;;;;;;;12.05;8.07;;;0.90;99.90;;;;;;5008541;28;20459;-78
2021/12/14 03:36:16;;;;;;;12.90;8.93;;;1.10;99.90;;;;;;5025667;28;20493;-79
2021/12/14 03:38:51;;;;;;;16.10;8.90;;;1.10;99.90;;;;;;5017465;28;20060;-81
2021/12/14 03:41:24;;;;;;;11.82;7.95;;;1.20;99.90;;;;;;4988430;28;20078;-78
2021/12/14 03:43:59;;;;;;;15.55;8.63;;;1.50;99.90;;;;;;5023209;28;20105;-79
2021/12/14 03:46:36;;;;;;;11.23;7.68;;;1.30;99.90;;;;;;5007405;28;20533;-77
2021/12/14 03:49:08;;;;;;;11.23;7.63;;;1.70;99.90;;;;;;4990465;28;20517;-78
2021/12/14 03:51:39;;;;;;;13.65;7.95;;;1.60;99.90;;;;;;4994957;28;20581;-79
2021/12/14 03:54:09;;;;;;;13.05;8.43;;;1.30;99.90;;;;;;5009519;28;20096;-80
2021/12/14 03:56:38;;;;;;;10.98;7.30;;;1.20;99.90;;;;;;5004252;28;20536;-80
2021/12/14 03:59:07;;;;;;;18.00;8.60;;;1.10;99.90;;;;;;5012345;28;20046;-79
2021/12/14 04:01:39;;;;;;;11.90;6.78;;;1.70;99.90;;;;;;5026304;28;20093;-79
2021/12/14 04:04:16;;;;;;;15.38;8.23;;;2.80;99.90;;;;;;5004946;28;20046;-79
2021/12/14 04:06:47;;;;;;;12.82;7.97;;;1.20;99.90;;;;;;5002954;28;20145;-79
2021/12/14 04:09:21;;;;;;;13.10;7.80;;;2.30;99.90;;;;;;5001782;28;20054;-79
2021/12/14 04:11:51;;;;;;;12.43;8.65;;;0.90;99.90;;;;;;5016414;28;20112;-79
2021/12/14 04:14:20;;;;;;;14.82;7.70;;;2.10;99.90;;;;;;5007834;28;20069;-78
2021/12/14 04:16:52;;;;;;;14.85;7.75;;;2.50;99.90;;;;;;5013977;28;20061;-79
2021/12/14 04:19:27;;;;;;;15.48;8.02;;;1.30;99.90;;;;;;5003687;28;20129;-79
2021/12/14 04:22:00;;;;;;;13.45;8.25;;;1.90;99.90;;;;;;5008845;28;20058;-79
2021/12/14 04:24:34;;;;;;;14.25;9.52;;;2.50;99.90;;;;;;5026504;28;20051;-79
2021/12/14 04:27:08;;;;;;;16.33;8.13;;;1.20;99.90;;;;;;5010547;28;20054;-79
2021/12/14 04:29:37;;;;;;;12.18;7.35;;;0.70;99.90;;;;;;5010634;28;20050;-79
2021/12/14 04:32:11;;;;;;;11.93;6.72;;;2.80;99.90;;;;;;5020286;28;20065;-79
2021/12/14 04:34:40;;;;;;;14.10;8.10;;;2.30;99.90;;;;;;5006706;28;20054;-80
2021/12/14 04:37:08;;;;;;;11.98;7.63;;;2.70;99.90;;;;;;5014775;28;20072;-79
2021/12/14 04:39:43;;;;;;;12.50;7.72;;;1.90;99.90;;;;;;5002578;28;20135;-80
2021/12/14 04:53:45;;;;;;;18.45;9.55;;;1.70;99.90;;;;;;4997520;28;20050;-77
2021/12/14 04:56:28;;;;;;;29.40;12.55;;;0.90;99.90;;;;;;4994171;28;20084;-78
2021/12/14 04:59:02;;;;;;;20.60;10.60;;;0.50;99.90;;;;;;5011472;28;20046;-81
2021/12/14 05:01:36;;;;;;;26.02;11.38;;;1.00;99.90;;;;;;5009233;28;20045;-83
2021/12/14 05:04:10;;;;;;;17.98;9.35;;;2.20;99.90;;;;;;5011556;28;20600;-80
2021/12/14 05:06:48;;;;;;;21.13;10.25;;;2.10;99.90;;;;;;5009152;28;20060;-80
2021/12/14 05:09:23;;;;;;;24.42;12.32;;;2.00;99.90;;;;;;5010822;28;20046;-80
2021/12/14 05:12:00;;;;;;;18.88;8.88;;;0.80;99.90;;;;;;5011650;28;20433;-77
2021/12/14 05:14:31;;;;;;;17.25;8.63;;;1.40;99.90;;;;;;5035270;28;20423;-80
2021/12/14 05:17:05;;;;;;;13.82;8.30;;;1.40;99.90;;;;;;5001671;28;20481;-79
2021/12/14 05:19:37;;;;;;;16.35;7.97;;;2.00;99.90;;;;;;5024179;28;20050;-80
2021/12/14 05:22:11;;;;;;;14.27;8.07;;;1.00;99.90;;;;;;4981128;28;20080;-80
2021/12/14 05:24:49;;;;;;;13.68;7.82;;;1.00;99.90;;;;;;4998643;28;20142;-80
2021/12/14 05:27:25;;;;;;;14.60;7.35;;;2.20;99.90;;;;;;5005330;28;20049;-80
2021/12/14 05:29:54;;;;;;;15.07;8.38;;;1.50;99.90;;;;;;5042373;28;20056;-80
2021/12/14 05:32:23;;;;;;;16.85;9.05;;;2.00;99.90;;;;;;5007439;28;20050;-80
2021/12/14 05:34:57;;;;;;;13.73;7.28;;;0.80;99.90;;;;;;4988623;28;20133;-81
2021/12/14 05:37:29;;;;;;;;;;;1.30;99.90;;;;;;4996553;28;20104;-81
2021/12/14 05:40:01;;;;;;;15.20;8.75;;;2.40;99.90;;;;;;4989539;28;20028;-82
2021/12/14 05:45:53;;;;;;;21.05;10.02;;;1.60;99.90;;;;;;5000412;28;20046;-81
2021/12/14 05:48:30;;;;;;;22.80;10.68;;;3.00;99.90;;;;;;4980859;28;20061;-81
2021/12/14 05:51:08;;;;;;;17.77;9.18;;;0.80;99.90;;;;;;5001052;28;20100;-81
2021/12/14 05:53:39;;;;;;;26.40;13.35;;;1.60;99.90;;;;;;5006670;28;20053;-80
2021/12/14 05:56:12;;;;;;;22.60;11.13;;;0.70;99.90;;;;;;4987839;28;20050;-81
2021/12/14 05:58:42;;;;;;;24.77;12.52;;;1.00;99.90;;;;;;4993052;28;20042;-81
2021/12/14 06:01:13;;;;;;;25.08;10.95;;;2.30;99.90;;;;;;4992463;28;20446;-82
2021/12/14 06:03:50;;;;;;;29.95;12.88;;;1.90;99.90;;;;;;5020757;28;20050;-81
2021/12/14 06:06:22;;;;;;;29.15;13.40;;;2.80;99.90;;;;;;5008041;28;20490;-81
2021/12/14 06:08:51;;;;;;;22.23;10.88;;;1.10;99.90;;;;;;5001998;28;20122;-81
2021/12/14 06:11:28;;;;;;;21.73;11.27;;;2.50;99.90;;;;;;4977667;28;20108;-81
2021/12/14 06:14:02;;;;;;;21.10;10.07;;;2.30;99.90;;;;;;4993927;28;20104;-81
2021/12/14 06:16:35;;;;;;;22.52;11.52;;;1.00;99.90;;;;;;5018627;28;20046;-79
2021/12/14 06:19:26;;;;;;;21.98;12.20;;;2.20;99.90;;;;;;4991846;28;20078;-79
2021/12/14 06:21:59;;;;;;;20.30;10.50;;;1.00;99.90;;;;;;5033408;28;20054;-79
2021/12/14 06:24:30;;;;;;;17.15;9.95;;;1.00;99.90;;;;;;5024022;28;20046;-79
2021/12/14 06:27:03;;;;;;;24.33;10.65;;;0.90;99.90;;;;;;5007523;28;20251;-81
2021/12/14 06:29:37;;;;;;;18.83;9.80;;;0.50;99.90;;;;;;5037174;28;20041;-82
2021/12/14 06:32:12;;;;;;;16.60;8.85;;;2.20;99.90;;;;;;5024072;28;20042;-82
2021/12/14 06:34:44;;;;;;;17.08;9.07;;;1.10;99.90;;;;;;5025186;28;20048;-83
2021/12/14 06:38:06;;;;;;;23.65;10.15;;;1.60;99.90;;;;;;5008154;28;20050;-82
2021/12/14 06:40:38;;;;;;;20.83;9.15;;;2.40;99.90;;;;;;4987623;28;20253;-82
2021/12/14 06:43:10;;;;;;;19.30;10.60;;;1.70;99.90;;;;;;5002820;28;20062;-81
2021/12/14 06:45:51;;;;;;;17.40;8.82;;;1.90;99.90;;;;;;5005779;28;20418;-79
2021/12/14 06:48:24;;;;;;;17.73;9.02;;;1.60;99.90;;;;;;5006788;28;20081;-80
2021/12/14 06:50:57;;;;;;;16.38;8.80;;;2.10;99.90;;;;;;5022555;28;20050;-80
2021/12/14 06:53:49;;;;;;;17.05;8.88;;;1.30;99.90;;;;;;4986024;28;20052;-80
2021/12/14 06:56:50;;;;;;;16.70;8.68;;;2.60;99.90;;;;;;4997509;28;20510;-80
2021/12/14 06:59:31;;;;;;;18.75;8.85;;;3.60;99.90;;;;;;5012124;28;20053;-81
2021/12/14 07:02:12;;;;;;;17.02;8.98;;;1.80;99.90;;;;;;4994260;28;20042;-80
2021/12/14 07:05:11;;;;;;;17.67;8.48;;;1.40;99.90;;;;;;5010607;28;20152;-83
2021/12/14 07:07:47;;;;;;;15.75;8.20;;;1.20;99.90;;;;;;4992139;28;20050;-81
2021/12/14 07:10:17;;;;;;;16.80;9.82;;;1.70;99.90;;;;;;5000446;28;20141;-84
2021/12/14 07:12:48;;;;;;;19.42;10.10;;;2.60;99.90;;;;;;5010320;28;20488;-85
2021/12/14 07:15:21;;;;;;;15.68;9.07;;;2.20;99.90;;;;;;5006795;28;20254;-84
2021/12/14 07:18:00;;;;;;;16.90;8.15;;;1.90;99.90;;;;;;5001168;28;20071;-84
2021/12/14 07:20:32;;;;;;;18.80;9.38;;;1.30;99.90;;;;;;5004472;28;20054;-81
2021/12/14 07:23:04;;;;;;;18.70;9.10;;;2.40;99.90;;;;;;5001443;28;20050;-84
2021/12/14 07:25:35;;;;;;;20.95;9.45;;;1.50;99.90;;;;;;5005263;28;20050;-84
2021/12/14 07:28:09;;;;;;;19.38;8.52;;;2.10;99.90;;;;;;5001004;28;20156;-85
2021/12/14 07:30:39;;;;;;;20.92;10.00;;;1.70;99.90;;;;;;4991163;28;20679;-84
2021/12/14 07:33:13;;;;;;;23.27;8.70;;;1.40;99.90;;;;;;4992921;28;20116;-85
2021/12/14 07:35:56;;;;;;;18.45;8.98;;;1.40;99.90;;;;;;5009385;28;20062;-84
2021/12/14 07:38:45;;;;;;;18.85;9.27;;;2.10;99.90;;;;;;5002916;28;20054;-83
2021/12/14 07:41:26;;;;;;;17.25;9.05;;;1.40;99.90;;;;;;5011842;28;20050;-84
2021/12/14 07:43:59;;;;;;;16.52;8.40;;;2.30;99.90;;;;;;4995402;28;20050;-82
2021/12/14 07:46:40;;;;;;;17.73;8.15;;;1.40;99.90;;;;;;4989933;28;20054;-83
2021/12/14 07:49:19;;;;;;;14.35;7.90;;;1.60;99.90;;;;;;4991336;28;20161;-85
2021/12/14 07:51:55;;;;;;;15.98;8.63;;;2.10;99.90;;;;;;4991550;28;20054;-79
2021/12/14 07:54:30;;;;;;;12.48;7.45;;;2.00;99.90;;;;;;4994564;28;20411;-83
2021/12/14 07:57:02;;;;;;;13.10;7.28;;;2.00;99.90;;;;;;4991527;28;20054;-81
2021/12/14 07:59:34;;;;;;;15.33;10.00;;;1.80;99.90;;;;;;4997928;28;20050;-82
2021/12/14 08:02:14;;;;;;;15.17;9.37;;;1.50;99.90;;;;;;4992716;28;20302;-82
2021/12/14 08:04:50;;;;;;;15.30;8.52;;;2.40;99.90;;;;;;4991280;28;20061;-81
2021/12/14 08:07:28;;;;;;;13.63;7.82;;;2.50;99.90;;;;;;4991945;28;20050;-85
2021/12/14 08:10:06;;;;;;;16.98;8.50;;;2.70;99.90;;;;;;5006212;28;20404;-88
2021/12/14 08:12:40;;;;;;;12.98;7.60;;;2.40;99.90;;;;;;5016052;28;20120;-87
2021/12/14 08:15:29;;;;;;;14.07;7.80;;;1.90;99.90;;;;;;5001461;28;20054;-86
2021/12/14 08:18:09;;;;;;;17.27;8.02;;;1.80;99.90;;;;;;4995571;28;20049;-91
2021/12/14 08:20:46;;;;;;;15.50;7.93;;;2.60;99.90;;;;;;5010561;28;20053;-87
2021/12/14 08:23:24;;;;;;;13.25;7.57;;;2.10;99.90;;;;;;4990432;28;20048;-85
2021/12/14 08:25:56;;;;;;;14.68;8.55;;;2.00;99.90;;;;;;5004536;28;20108;-86
2021/12/14 08:28:23;;;;;;;11.38;7.03;;;1.40;99.90;;;;;;4998105;28;20482;-85
2021/12/14 08:31:00;;;;;;;13.85;6.75;;;1.30;99.90;;;;;;5000493;28;20089;-84
2021/12/14 08:33:31;;;;;;;14.75;8.15;;;2.30;99.90;;;;;;5019298;28;20136;-86
2021/12/14 08:36:05;;;;;;;11.55;7.43;;;1.40;99.90;;;;;;4997621;28;20061;-87
2021/12/14 08:38:36;;;;;;;14.05;8.48;;;1.30;99.90;;;;;;4997138;28;20100;-84
2021/12/14 08:41:15;;;;;;;12.20;6.70;;;1.80;99.90;;;;;;5005436;28;20038;-84
2021/12/14 08:43:48;;;;;;;16.08;8.35;;;2.40;99.90;;;;;;5024952;28;20070;-83
2021/12/14 08:46:22;;;;;;;15.30;8.25;;;3.30;99.90;;;;;;5008371;28;20521;-84
2021/12/14 08:48:55;;;;;;;15.57;7.65;;;1.40;99.90;;;;;;4999735;28;20054;-85
2021/12/14 08:51:29;;;;;;;16.08;7.15;;;1.30;99.90;;;;;;5040441;28;20053;-85
2021/12/14 08:54:04;;;;;;;14.68;8.50;;;3.00;99.90;;;;;;5004060;28;20046;-83
2021/12/14 08:56:37;;;;;;;16.55;7.72;;;1.80;99.90;;;;;;5017180;28;20676;-82
2021/12/14 08:59:08;;;;;;;11.52;7.30;;;1.20;99.90;;;;;;5002958;28;20133;-82
2021/12/14 09:01:43;;;;;;;10.63;6.90;;;1.90;99.90;;;;;;5008492;28;20046;-81
2021/12/14 09:04:26;;;;;;;15.23;6.60;;;2.40;99.90;;;;;;4995713;28;20049;-81
2021/12/14 09:06:59;;;;;;;12.00;7.38;;;1.10;99.90;;;;;;5009092;28;20058;-83
2021/12/14 09:09:28;;;;;;;14.05;6.35;;;1.70;99.90;;;;;;5009293;28;20061;-83
2021/12/14 09:12:03;;;;;;;11.10;7.00;;;1.80;99.90;;;;;;5029744;28;20056;-82
2021/12/14 09:14:32;;;;;;;13.30;7.32;;;1.90;99.90;;;;;;5015102;28;20053;-83
2021/12/14 09:17:01;;;;;;;15.88;7.80;;;1.30;99.90;;;;;;5021894;28;20057;-83
2021/12/14 09:19:34;;;;;;;15.43;7.72;;;1.30;99.90;;;;;;5011243;28;20165;-84
2021/12/14 09:22:14;;;;;;;11.95;6.00;;;2.30;99.90;;;;;;5008845;28;20105;-85
2021/12/14 09:24:43;;;;;;;11.07;7.93;;;1.40;99.90;;;;;;5002883;28;20046;-84
2021/12/14 09:27:15;;;;;;;11.82;6.65;;;1.80;99.90;;;;;;5012817;28;20088;-86
2021/12/14 09:29:43;;;;;;;12.32;6.45;;;2.10;99.90;;;;;;4993282;28;20054;-84
2021/12/14 09:32:18;;;;;;;12.40;7.28;;;1.90;99.90;;;;;;4993183;28;20466;-87
2021/12/14 09:34:47;;;;;;;13.45;7.18;;;1.50;99.90;;;;;;4993459;28;20053;-86
2021/12/14 09:37:17;;;;;;;15.40;6.65;;;3.50;99.90;;;;;;5008272;28;20053;-86
2021/12/14 09:39:49;;;;;;;9.32;5.68;;;1.60;99.90;;;;;;4999131;28;20507;-85
2021/12/14 09:42:26;;;;;;;14.15;7.40;;;1.50;99.90;;;;;;5030938;28;20170;-85
2021/12/14 09:44:57;;;;;;;12.57;6.63;;;2.30;99.90;;;;;;5012453;28;20506;-84
2021/12/14 09:47:31;;;;;;;11.52;6.93;;;1.40;99.90;;;;;;5012201;28;20321;-88
2021/12/14 09:50:00;;;;;;;;;;;2.00;99.90;;;;;;5015766;28;20050;-87
2021/12/14 09:52:33;;;;;;;9.93;5.97;;;1.60;99.90;;;;;;5010682;28;19992;-85
2021/12/14 09:55:01;;;;;;;;;;;2.50;99.90;;;;;;5013062;28;20050;-86
2021/12/14 09:57:40;;;;;;;10.85;7.35;;;1.90;99.90;;;;;;5010221;28;19931;-86
2021/12/14 10:00:16;;;;;;;13.02;6.55;;;1.90;99.90;;;;;;5012404;28;20054;-84
2021/12/14 10:02:48;;;;;;;13.30;7.45;;;2.30;99.90;;;;;;5012267;28;20042;-83
2021/12/14 10:05:21;;;;;;;12.48;7.43;;;2.20;99.90;;;;;;5010735;28;20103;-84
2021/12/14 10:07:51;;;;;;;13.60;8.52;;;2.30;99.90;;;;;;5009619;28;20049;-84
2021/12/14 10:10:22;;;;;;;18.08;8.15;;;2.30;99.90;;;;;;5012037;28;20140;-85
2021/12/14 10:12:55;;;;;;;10.57;6.95;;;2.00;99.90;;;;;;5010184;28;20153;-83
2021/12/14 10:15:32;;;;;;;14.32;7.63;;;2.40;99.90;;;;;;5004422;28;20578;-83
2021/12/14 10:18:08;;;;;;;19.05;7.28;;;0.60;99.90;;;;;;5025632;28;20050;-84
2021/12/14 10:20:46;;;;;;;13.50;7.82;;;3.70;99.90;;;;;;5004742;28;20085;-80
2021/12/14 10:23:18;;;;;;;18.23;8.18;;;1.00;99.90;;;;;;5012253;28;20553;-83
2021/12/14 10:25:56;;;;;;;;;;;;;;;;;;;;;
2021/12/14 10:28:27;;;;;;;14.80;7.55;;;2.40;99.90;;;;;;5013232;28;20053;-81
2021/12/14 10:31:00;;;;;;;10.10;5.95;;;1.80;99.90;;;;;;5010409;28;20058;-80
2021/12/14 10:33:33;;;;;;;15.07;9.25;;;2.40;99.90;;;;;;5013398;28;20046;-83
2021/12/14 10:36:15;;;;;;;16.10;7.75;;;2.30;99.90;;;;;;5015810;28;20045;-85
2021/12/14 10:39:05;;;;;;;13.93;8.07;;;1.00;99.90;;;;;;5031697;28;20056;-83
2021/12/14 10:44:23;;;;;;;16.45;7.40;;;1.90;99.90;;;;;;5006910;28;20573;-84
2021/12/14 10:46:53;;;;;;;;;;;2.30;99.90;;;;;;5016474;28;20045;-83
2021/12/14 10:49:24;;;;;;;9.38;5.80;;;2.20;99.90;;;;;;5026254;28;19931;-84
2021/12/14 10:51:58;;;;;;;11.07;6.85;;;2.20;99.90;;;;;;5041630;28;20064;-85
2021/12/14 10:54:29;;;;;;;13.77;8.30;;;2.50;99.90;;;;;;5010955;28;20622;-85
2021/12/14 10:57:02;;;;;;;13.13;7.47;;;2.30;99.90;;;;;;5010514;28;20115;-84
2021/12/14 10:59:35;;;;;;;16.52;8.68;;;2.40;99.90;;;;;;4990521;28;20046;-85
2021/12/14 11:02:07;;;;;;;13.85;6.95;;;2.10;99.90;;;;;;5006613;28;20046;-85
2021/12/14 11:04:39;;;;;;;13.00;7.13;;;2.40;99.90;;;;;;5013289;28;20454;-85
2021/12/14 11:07:11;;;;;;;16.00;7.53;;;2.70;99.90;;;;;;5024435;28;20553;-86
2021/12/14 11:09:45;;;;;;;17.90;7.55;;;2.00;99.90;;;;;;5034810;28;20049;-85
2021/12/14 11:12:22;;;;;;;13.98;7.30;;;1.30;99.90;;;;;;5014113;28;20445;-84
2021/12/14 11:14:54;;;;;;;15.48;8.05;;;2.30;99.90;;;;;;4992111;28;20065;-82
2021/12/14 11:20:17;;;;;;;18.65;7.45;;;1.30;99.90;;;;;;5026716;28;20056;-84
2021/12/14 11:22:54;;;;;;;15.13;6.68;;;1.60;99.90;;;;;;5005145;28;20481;-84
2021/12/14 11:25:27;;;;;;;12.07;6.95;;;1.10;99.90;;;;;;5021189;28;20057;-84
2021/12/14 11:28:00;;;;;;;15.48;7.10;;;3.20;99.90;;;;;;5025154;28;20053;-84
2021/12/14 11:30:35;;;;;;;;;;;2.40;99.90;;;;;;5027779;28;20058;-81
2021/12/14 11:33:09;;;;;;;14.00;7.47;;;2.10;99.90;;;;;;5011432;28;19932;-82
2021/12/14 11:35:41;;;;;;;12.60;7.95;;;2.40;99.90;;;;;;5006301;28;20402;-83
2021/12/14 11:38:29;;;;;;;16.60;7.90;;;2.30;99.90;;;;;;5007143;28;20157;-83
2021/12/14 11:41:02;;;;;;;16.52;8.13;;;1.40;99.90;;;;;;5021673;28;20050;-81
2021/12/14 11:43:31;;;;;;;13.90;7.40;;;2.10;99.90;;;;;;5001332;28;20387;-83
2021/12/14 11:46:05;;;;;;;12.48;7.57;;;1.80;99.90;;;;;;5011228;28;20108;-81
2021/12/14 11:48:38;;;;;;;12.90;6.20;;;2.90;99.90;;;;;;5007351;28;20521;-85
2021/12/14 11:51:09;;;;;;;11.48;6.90;;;0.20;99.90;;;;;;5002084;28;20070;-80
2021/12/14 11:53:38;;;;;;;9.82;6.80;;;0.90;99.90;;;;;;4999294;28;20108;-81
2021/12/14 11:56:10;;;;;;;10.20;6.65;;;0.70;99.90;;;;;;5008022;28;20068;-81
2021/12/14 11:58:43;;;;;;;;;;;0.10;99.90;;;;;;5006267;28;20050;-80
2021/12/14 12:01:16;;;;;;;11.80;6.40;;;1.70;99.90;;;;;;5008535;28;20019;-83
2021/12/14 12:03:51;;;;;;;14.50;6.70;;;1.80;99.90;;;;;;5008025;28;20076;-83
2021/12/14 12:06:46;;;;;;;12.98;6.45;;;2.20;99.90;;;;;;5010341;28;20092;-84
2021/12/14 12:09:30;;;;;;;11.60;6.35;;;2.80;99.90;;;;;;5001633;28;20486;-84
2021/12/14 12:12:31;;;;;;;10.63;5.43;;;1.80;99.90;;;;;;4992058;28;20058;-80
2021/12/14 12:15:09;;;;;;;11.20;6.15;;;2.70;99.90;;;;;;5016905;28;20870;-78
2021/12/14 12:17:43;;;;;;;10.05;5.07;;;2.80;99.90;;;;;;5019656;28;20053;-80
2021/12/14 12:20:28;;;;;;;10.65;5.78;;;2.30;99.90;;;;;;5001355;28;20554;-82
2021/12/14 12:23:01;;;;;;;6.75;4.88;;;1.20;99.90;;;;;;5014147;28;20100;-80
2021/12/14 12:25:34;;;;;;;10.27;5.15;;;1.90;99.90;;;;;;5013583;28;20042;-81
2021/12/14 12:28:09;;;;;;;8.20;5.07;;;0.70;99.90;;;;;;5014836;28;20058;-81
2021/12/14 12:30:47;;;;;;;12.18;5.75;;;1.90;99.90;;;;;;5008871;28;20057;-81
2021/12/14 12:33:27;;;;;;;7.72;5.18;;;1.60;99.90;;;;;;5039897;28;20509;-83
2021/12/14 12:36:10;;;;;;;11.25;5.45;;;0.80;99.90;;;;;;5009692;28;20105;-82
2021/12/14 12:38:47;;;;;;;14.70;6.40;;;1.90;99.90;;;;;;4992757;28;20403;-83
2021/12/14 12:41:38;;;;;;;10.40;5.50;;;2.70;99.90;;;;;;5017925;28;20139;-82
2021/12/14 12:44:12;;;;;;;8.52;4.63;;;1.10;99.90;;;;;;5015190;28;20045;-84
2021/12/14 12:46:46;;;;;;;10.38;6.15;;;0.40;99.90;;;;;;5029098;28;20050;-80
2021/12/14 12:49:22;;;;;;;8.98;4.93;;;2.30;99.90;;;;;;5010582;28;20057;-81
2021/12/14 12:52:07;;;;;;;12.02;6.13;;;0.70;99.90;;;;;;5028653;28;20045;-82
2021/12/14 12:54:50;;;;;;;10.07;5.43;;;0.80;99.90;;;;;;5013474;28;20152;-81
2021/12/14 12:57:36;;;;;;;12.23;6.68;;;1.00;99.90;;;;;;5010158;28;20104;-84
2021/12/14 13:00:32;;;;;;;9.45;5.40;;;1.20;99.90;;;;;;5010909;28;20124;-84
2021/12/14 13:03:08;;;;;;;10.73;5.82;;;0.80;99.90;;;;;;5010946;28;20046;-83
2021/12/14 13:05:42;;;;;;;10.82;5.35;;;2.20;99.90;;;;;;5010929;28;20050;-82
2021/12/14 13:08:29;;;;;;;8.27;5.18;;;2.60;99.90;;;;;;5008186;28;20081;-82
2021/12/14 13:11:21;;;;;;;8.38;6.05;;;1.10;99.90;;;;;;5009685;28;20061;-78
2021/12/14 13:13:56;;;;;;;9.95;4.53;;;1.00;99.90;;;;;;5010276;28;20073;-79
2021/12/14 13:16:31;;;;;;;9.57;6.07;;;1.50;99.90;;;;;;5007115;28;20147;-79
2021/12/14 13:19:04;;;;;;;12.90;6.30;;;1.30;99.90;;;;;;5008533;28;20124;-78
2021/12/14 13:21:45;;;;;;;9.43;6.20;;;2.10;99.90;;;;;;5009235;28;20054;-78
2021/12/14 13:24:22;;;;;;;9.77;5.20;;;1.00;99.90;;;;;;5006970;28;20111;-80
2021/12/14 13:26:59;;;;;;;10.30;5.60;;;1.60;99.90;;;;;;5011098;28;20088;-79
2021/12/14 13:29:40;;;;;;;8.55;4.97;;;2.00;99.90;;;;;;5009955;28;20538;-78
2021/12/14 13:32:27;;;;;;;9.80;5.68;;;0.80;99.90;;;;;;5007536;28;20091;-79
2021/12/14 13:35:08;;;;;;;9.88;5.20;;;1.20;99.90;;;;;;5014088;28;20308;-80
2021/12/14 13:37:43;;;;;;;8.90;5.35;;;0.20;99.90;;;;;;5007606;28;20045;-84
2021/12/14 13:40:18;;;;;;;10.52;5.45;;;0.80;99.90;;;;;;5009823;28;20057;-80
2021/12/14 13:42:54;;;;;;;10.65;5.65;;;1.30;99.90;;;;;;5013378;28;20058;-80
2021/12/14 13:45:28;;;;;;;10.32;5.85;;;0.80;99.90;;;;;;5010374;28;20540;-82
2021/12/14 13:48:00;;;;;;;9.02;5.38;;;1.70;99.90;;;;;;5011588;28;20046;-81
2021/12/14 13:50:32;;;;;;;8.07;4.80;;;0.30;99.90;;;;;;5024708;28;20056;-79
2021/12/14 13:53:02;;;;;;;10.90;5.20;;;1.90;99.90;;;;;;5015671;28;20061;-79
2021/12/14 13:55:40;;;;;;;10.70;5.35;;;0.40;99.90;;;;;;5010788;28;20038;-79